KINT/INT METAR and TAF weather

Enter ICAO airport designator
Station Type Date Time Source
KINT METAR 2018/12/10 01:54 UTC NOAA

KINT 100154Z 04014G24KT 10SM UP OVC007 01/M01 A3000 RMK AO2 PK WND 03026/0138 UPE02B34FZRAB02E34 SLP167 P0000 I1001 T00061006


Station Type Date Time Source
KINT Decoded METAR 2018/12/10 01:54 UTC NOAA

WINSTON SALEM SMITH REYNOLDS, NC, United States (KINT) 36-08N 80-14W 291M
Dec 09, 2018 - 08:54 PM EST / 2018.12.10 0154 UTC
Wind: from the NE (040 degrees) at 16 MPH (14 KT) gusting to 28 MPH (24 KT):0
Visibility: 10 mile(s):0
Sky conditions: overcast
Weather: precipitation
Precipitation last hour: A trace
Temperature: 33.1 F (0.6 C)
Windchill: 23 F (-5 C):1
Dew Point: 30.9 F (-0.6 C)
Relative Humidity: 91%
Pressure (altimeter): 30 in. Hg (1015 hPa)
ob: KINT 100154Z 04014G24KT 10SM UP OVC007 01/M01 A3000 RMK AO2 PK WND 03026/0138 UPE02B34FZRAB02E34 SLP167 P0000 I1001 T00061006
cycle: 2

Station Type Date Time Source
KINT TAF 2018/12/10 01:57 UTC NOAA

TAF
AMD KINT 100053Z 1001/1024 03015G25KT 3SM -SN BR OVC006 WS020/07045KT
TEMPO 1006/1010 1SM -SN OVC004
FM101300 02008KT P6SM BKN045 OVC080


Example: see airport list